Board Camp, AR

8:08 AM CST en Enero 28, 2015 (GMT -0600)
Mena | Change Station
CLOSE
Current Station
Aeropuerto
Location: Mena,
Altura: 1079 ft
Estaciones meteorológicas cercanas

Alt 1079 ft 34.55 °N, 94.20 °W | Updated 13 minutes ago

Despejado
Despejado
36 ° F
Sensación térmica 36 ° F
N
0
Viento Variable Viento desde Norte

Hoy
Alta -- | Baja -- ° F
--% Posibilidad de precipitaciones
Ayer
Alta -- | Baja -- ° F
Precip. -- pul
7:17 AM 5:42 PM
Gibosa creciente, 65% visible
Presión 30.18 pul
Visibilidad 7.0 Millas
Nubes Despejado
Punto de rocío 34 ° F
Humedad 93%
Precipitaciones 0.00 pul
Espesor de la nieve No disponible.
UV 0 de una escala de 12
Polen 5.10 de una escala de 12
Calidad del aire No disponible.
Flu Activity No disponible.
METAR KMEZ 281355Z AUTO 00000KT 7SM CLR 02/01 A3018 RMK AO2

More Conditions Fewer Conditions

Presión 30.18 pul
Visibilidad 7.0 Millas
Nubes Despejado
Punto de rocío 34 ° F
Humedad 93%
Precipitaciones 0.00 pul
Espesor de la nieve No disponible.
UV 0 de una escala de 12
Polen 5.10 de una escala de 12
Calidad del aire No disponible.
Flu Activity No disponible.
METAR KMEZ 281355Z AUTO 00000KT 7SM CLR 02/01 A3018 RMK AO2

More Conditions Fewer Conditions

10-Day Weather Forecast

Almanac

Astronomía

Jan. 28, 2015 Salida Puesta
Hora real
Crepúsculo civil
Crepúsculo náutico
Crepúsculo astronómico
Luna
Horas de luz
Horas de luz
Tomorrow will be .
, % of the Moon is Illuminated

Extremos de hoy

Máximos del estado Bajos del estado

Community

WunderPhotos

Upload Photos

1,791,148 ¡fotos cargadas!

WunderBlogs® & News

Nearby

Calidad del aire

  Calidad del aire Índice AQ Contaminante
Not available.

Grosos de nieve

Estación Profundido Altura

Actividad de terremotos

Ciudad Distance Mag. Tiempo y dato
Magnitud mínima muestra es 2,5.

Temperaturas de aguas costeras

Lugar Temperatura

Estaciones meteorológicas cercanas